NCAR-RAP Real-Time Weather Data

Output produced by METARs form (20 February 2019  17:20 UTC)
found at http://weather.rap.ucar.edu/surface/
 
RJSK 201200Z 24007KT 200V270 9999 FEW015 SCT025 BKN030 04/01 Q1013
RJSK 201100Z 26004KT 9999 -SHRA FEW005 SCT015 BKN020 04/03 Q1013
RJSK 201000Z 28010KT 9999 -SHRA FEW007 SCT015 BKN025 04/03 Q1013
RJSK 200900Z 24007KT 9999 -SHRA FEW005 SCT007 BKN010 05/04 Q1013
RJSK 200800Z 26006KT 9999 -SHRA FEW005 SCT012 BKN018 05/04 Q1012
RJSK 200700Z 25003KT 200V280 8000 -SHRA FEW001 SCT008 BKN020 06/05 Q1011
RJSK 200650Z 25006KT 4500 -SHRA BR FEW001 BKN008 BKN015 05/05 Q1011 RMK 1ST001 5ST008 6CU015 A2987
RJSK 200645Z VRB05KT 2000 R28/0750VP2000U -SHRA BCFG BR FEW001 BKN008 BKN015 05/05 Q1011 RMK 2ST001 5ST008 6CU015 A2987 6000W-NW
RJSK 200640Z VRB03KT 1000 R28/0500VP2000U -SHRA BCFG BR SCT001 BKN008 BKN015 05/05 Q1011 RMK 3ST001 5ST008 6CU015 A2987 3000W-NW
RJSK 200632Z 15002KT 0500 R28/0550VP2000D -SHRA FG SCT001 SCT009 BKN015 05/04 Q1011 RMK 3ST001 3ST009 5CU015 A2987 2000W-NW
RJSK 200605Z VRB02KT 5000 R28/0700VP2000D -SHRA PRFG BR FEW001 SCT009 BKN020 05/05 Q1011 RMK 1ST001 3ST009 6CU020 A2986 1000E-SE
RJSK 200600Z VRB02KT 4500 R28/0700VP2000D -SHRA PRFG BR FEW001 SCT009 BKN020 05/05 Q1011
RJSK 200547Z 17003KT 140V210 1000 R28/0900VP2000D -SHRA BCFG BR SCT001 BKN009 BKN025 05/05 Q1011 RMK 4ST001 5ST009 7CU025 A2986 7000W-NW
RJSK 200542Z VRB02KT 1200 R28/0900VP2000N -SHRA BCFG BR SCT001 BKN009 BKN025 05/04 Q1011 RMK 4ST001 5ST009 7CU025 A2986 7000W-NW
RJSK 200523Z 14003KT 120V190 1200 R28/P2000N -SHRA BCFG BR SCT001 BKN009 BKN020 05/05 Q1011 RMK 4ST001 5ST009 7CU020 A2986 4000W-NW
RJSK 200508Z 11003KT 2500 -SHRA BCFG BR SCT001 SCT010 BKN025 04/04 Q1011 RMK 4ST001 4CU010 7CU025 A2986 6000W-NW
RJSK 200500Z 12004KT 1000 R28/1100VP2000U -SHRA BCFG BR BKN001 BKN002 BKN010 04/04 Q1011
RJSK 200437Z 14003KT 110V200 1000 R28/0800VP2000N -SHRA BCFG BR BKN001 BKN002 04/04 Q1011 RMK 5ST001 7ST002 A2987
RJSK 200433Z 14003KT 110V190 0800 R28/0400VP2000U -SHRA FG BKN001 BKN002 04/04 Q1011 RMK 5ST001 7ST002 A2987
RJSK 200413Z 18003KT 130V220 0500 R28/0600V1000N -SHRA FG BKN001 BKN002 04/03 Q1011 RMK 5ST001 7ST002 A2987
RJSK 200404Z 16003KT 120V220 0500 R28/0500VP2000N -SHRA FG BKN001 BKN002 04/03 Q1011 RMK 5ST001 7ST002 A2987
RJSK 200400Z VRB02KT 0700 R28/0500VP2000U -SHRA FG BKN001 BKN002 04/04 Q1011
RJSK 200349Z 18003KT 140V230 0700 R28/0650VP2000D -SHRA FG BKN001 BKN002 04/04 Q1011 RMK 5ST001 7ST002 A2987 2000NW
RJSK 200347Z 16004KT 110V200 0700 R28/0650VP2000D -SHRA FG BKN001 BKN002 04/04 Q1011 RMK 5ST001 7ST002 A2987
RJSK 200345Z 15003KT 110V190 0800 R28/0800VP2000D -SHRA FG BKN001 BKN002 04/04 Q1011 RMK 5ST001 7ST002 A2987
RJSK 200344Z 15003KT 110V190 1200 R28/P2000N -SHRA BCFG BR SCT001 BKN002 BKN005 04/04 Q1011 RMK 4ST001 5ST002 6ST005 A2987
RJSK 200332Z 13003KT 070V220 2000 R28/0900VP2000U -SHRA BCFG BR SCT001 BKN002 BKN006 04/04 Q1011 RMK 3ST001 5ST002 6ST006 A2987 0900E-S
RJSK 200320Z 14004KT 090V180 3000 R28/1300VP2000D SHRA BCFG BR FEW001 SCT002 BKN003 04/04 Q1011 RMK 2ST001 4ST002 5ST003 A2988
RJSK 200317Z 14004KT 090V190 2000 -SHRA BCFG BR FEW001 BKN002 BKN010 04/04 Q1011 RMK 2ST001 5ST002 7ST010 A2988
RJSK 200300Z 14004KT 110V200 3000 -SHRA BCFG BR FEW001 BKN003 BKN010 04/04 Q1012
RJSK 200200Z 13003KT 5000 BCFG BR FEW001 BKN012 04/04 Q1012
RJSK 200147Z 15003KT 110V190 2500 BCFG BR FEW001 SCT002 BKN012 04/04 Q1013 RMK 2ST001 4ST002 5ST012 A2992
RJSK 200138Z 14004KT 100V180 2000 R28/1600VP2000N BCFG BR SCT001 BKN002 BKN012 04/04 Q1013 RMK 3ST001 5ST002 6ST012 A2991
RJSK 200128Z 12004KT 090V170 1600 R28/0800VP2000D BCFG BR BKN001 BKN002 BKN006 04/04 Q1012 RMK 5ST001 6ST002 7ST006 A2991
RJSK 200118Z 13005KT 1200 R28/1200VP2000N BCFG BR BKN001 BKN002 BKN006 04/04 Q1012 RMK 5ST001 6ST002 7ST006 A2991
RJSK 200112Z 12004KT 2000 R28/0700VP2000U BCFG BR BKN001 BKN002 BKN006 04/04 Q1012 RMK 5ST001 6ST002 7ST006 A2990
RJSK 200106Z 11004KT 1600 R28/0750V2000D BCFG BR FEW001 BKN002 BKN006 04/04 Q1012 RMK 2ST001 5ST002 6ST006 A2990 0700E-SE
RJSK 200104Z 11004KT 2500 R28/0750V2000D BCFG BR FEW001 BKN006 BKN012 04/04 Q1012 RMK 2ST001 5ST006 6ST012 A2990 0700NE-SE
RJSK 200100Z 11004KT 3000 R28/0800VP2000D BCFG BR FEW001 SCT006 BKN012 04/04 Q1012
RJSK 200018Z VRB02KT 6000 PRFG FEW001 BKN015 04/04 Q1012 RMK 2ST001 7CU015 A2989 2000NE-SE
RJSK 200007Z VRB01KT 4000 R28/1200VP2000U -SHRA BCFG BR FEW001 SCT012 BKN015 03/03 Q1012 RMK 2ST001 3ST012 6CU015 A2989 1400E-SE
RJSK 200000Z 14003KT 070V200 2500 R28/0900VP2000U -SHRA BCFG BR FEW001 SCT005 BKN012 03/03 Q1012
RJSK 192344Z 16003KT 130V200 1000 R28/0900V1600U -SHRA BCFG BR BKN001 BKN002 BKN006 02/02 Q1012 RMK 5ST001 6ST002 7ST006 A2989 2500NW
RJSK 192335Z 15004KT 0600 R28/0650V1200U -SHRA FG BKN001 BKN002 BKN005 02/02 Q1012 RMK 5ST001 6ST002 7ST005 A2989 2000NW
RJSK 192320Z 16004KT 0400 R28/0500V0800U -SHRA FG BKN001 BKN002 02/02 Q1012 RMK 5ST001 7ST002 A2989
RJSK 192310Z 17004KT 140V200 0300 R28/0450V0750N -SHRA FG BKN001 BKN002 02/02 Q1012 RMK 5ST001 7ST002 A2989
RJSK 192304Z 17004KT 0300 R28/0450V1200D -SHRA FG BKN001 BKN002 BKN006 02/02 Q1012 RMK 5ST001 6ST002 7ST006 A2989
RJSK 192300Z 16003KT 130V190 0500 R28/0750V1200U -SHRA FG BKN001 BKN002 BKN006 02/02 Q1012
RJSK 192250Z 12002KT 0400 R28/0650VP2000D FG BKN001 BKN002 BKN006 02/02 Q1012 RMK 5ST001 6ST002 7ST006 A2989
RJSK 192245Z VRB02KT 0600 R28/0650VP2000U FG BKN001 BKN002 BKN006 02/02 Q1012 RMK 5ST001 6ST002 7ST006 A2989
RJSK 192235Z 15003KT 0400 R28/0600V1000D FG BKN001 BKN002 BKN006 02/02 Q1012 RMK 5ST001 6ST002 7ST006 A2989
RJSK 192212Z 11002KT 0400 R28/0800V1200D -RA FG BKN001 BKN002 BKN006 02/02 Q1012 RMK 5ST001 6ST002 7ST006 A2988
RJSK 192200Z 15003KT 0500 R28/0600V1100U -RA FG BKN001 BKN002 BKN006 02/01 Q1011
RJSK 192140Z 12002KT 0400 R28/0600N -RA FG BKN001 BKN002 BKN008 02/02 Q1011 RMK 5ST001 6ST002 7ST008 A2988
RJSK 191200Z 15004KT 9999 -RA FEW020 SCT040 BKN060 02/01 Q1011
RJSK 191100Z 09006KT 060V130 9999 -RA FEW020 SCT030 BKN040 03/00 Q1012
RJSK 191000Z 09004KT 9999 -RA FEW020 SCT040 BKN060 04/M00 Q1014
RJSK 190900Z 12003KT 070V170 9999 -RA FEW020 SCT030 BKN050 05/M01 Q1015
RJSK 190800Z 15005KT 100V200 9999 -RA FEW020 SCT030 BKN040 06/M01 Q1016
RJSK 190700Z VRB04KT 9999 -RA FEW020 SCT030 BKN045 05/M01 Q1017
RJSK 190600Z 14005KT 9999 FEW040 SCT050 BKN070 06/M01 Q1018
RJSK 190500Z 13004KT 9999 FEW050 SCT070 BKN100 06/M01 Q1018
RJSK 190400Z 14004KT 110V170 9999 FEW040 BKN090 OVC120 05/M01 Q1019
RJSK 190300Z 14004KT 120V190 CAVOK 05/M01 Q1020
RJSK 190200Z 14004KT 090V170 CAVOK 04/M02 Q1022
RJSK 190100Z 18004KT 150V240 9999 FEW030 SCT100 BKN120 02/M02 Q1023
RJSK 190000Z 11004KT 9999 FEW025 SCT110 BKN130 01/M02 Q1024
RJSK 182300Z 13003KT 100V170 9999 FEW030 SCT120 BKN140 M00/M03 Q1025
RJSK 182200Z 13003KT 9999 FEW025 SCT120 BKN150 M01/M03 Q1025
RJSK 182140Z 13004KT 100V160 9999 FEW020 SCT120 BKN150 M01/M03 Q1024 RMK 1SC020 3AC120 6AC150 A3026
RJSK 181200Z 10003KT 9999 FEW040 M00/M04 Q1026
RJSK 181100Z VRB02KT 9999 FEW040 M00/M04 Q1025
RJSK 181000Z VRB01KT 9999 FEW030 SCT040 01/M03 Q1025
RJSK 180900Z 29002KT 9999 FEW030 BKN040 03/M03 Q1025
RJSK 180800Z 30005KT 9999 FEW030 SCT040 04/M03 Q1024
RJSK 180700Z 29012KT 9999 FEW030 SCT040 05/M03 Q1024
RJSK 180600Z 29015KT 9999 FEW030 BKN040 05/M04 Q1024